createdAt,value
2022-09-21T00:00:49.508Z,3.00
2022-09-21T00:01:52.683Z,3.00
2022-09-21T00:02:55.937Z,3.29
2022-09-21T00:03:59.018Z,2.71
2022-09-21T00:05:01.896Z,3.33
2022-09-21T00:06:04.981Z,3.67
2022-09-21T00:07:08.060Z,2.71
2022-09-21T00:08:11.140Z,2.00
2022-09-21T00:09:14.422Z,2.00
2022-09-21T00:10:18.279Z,2.00
2022-09-21T00:11:21.299Z,2.43
2022-09-21T00:12:24.474Z,3.33
2022-09-21T00:13:27.869Z,2.57
2022-09-21T00:14:30.739Z,1.43
2022-09-21T00:15:34.053Z,2.00
2022-09-21T00:16:37.166Z,2.00
2022-09-21T00:17:40.487Z,1.57
2022-09-21T00:18:43.668Z,1.86
2022-09-21T00:19:46.850Z,2.86
2022-09-21T00:20:49.929Z,3.43
2022-09-21T00:21:53.009Z,3.33
2022-09-21T00:22:55.895Z,3.00
2022-09-21T00:23:59.158Z,3.00
2022-09-21T00:25:02.249Z,3.00
2022-09-21T00:26:05.538Z,3.14
2022-09-21T00:27:08.610Z,3.43
2022-09-21T00:28:11.895Z,3.00
2022-09-21T00:29:14.841Z,3.00
2022-09-21T00:30:17.868Z,2.33
2022-09-21T00:31:20.971Z,1.67
2022-09-21T00:32:24.020Z,1.57
2022-09-21T00:33:27.090Z,2.00
2022-09-21T00:34:30.372Z,3.43
2022-09-21T00:35:33.445Z,3.57
2022-09-21T00:36:36.528Z,2.67
2022-09-21T00:37:39.704Z,1.86
2022-09-21T00:38:42.888Z,2.43
2022-09-21T00:39:45.976Z,4.00
2022-09-21T00:40:49.050Z,5.00
2022-09-21T00:41:52.033Z,3.33
2022-09-21T00:42:55.210Z,3.57
2022-09-21T00:43:58.601Z,2.71
2022-09-21T00:45:01.781Z,3.00
2022-09-21T00:46:05.145Z,3.00
2022-09-21T00:47:08.108Z,3.00
2022-09-21T00:48:11.229Z,3.00
2022-09-21T00:49:14.282Z,3.00
2022-09-21T00:50:17.389Z,3.17
2022-09-21T00:51:20.883Z,3.00
2022-09-21T00:52:24.570Z,3.43
2022-09-21T00:53:27.647Z,3.50
2022-09-21T00:54:30.831Z,3.29
2022-09-21T00:55:34.029Z,4.86
2022-09-21T00:56:37.297Z,4.86
2022-09-21T00:57:40.407Z,2.71
2022-09-21T00:58:43.660Z,1.86
2022-09-21T00:59:46.840Z,3.43
2022-09-21T01:00:49.746Z,3.67
2022-09-21T01:01:53.046Z,3.00
2022-09-21T01:02:55.879Z,3.00
2022-09-21T01:03:58.979Z,3.00
2022-09-21T01:05:02.029Z,2.50
2022-09-21T01:06:05.182Z,3.17
2022-09-21T01:07:07.987Z,2.50
2022-09-21T01:08:11.268Z,3.00
2022-09-21T01:09:14.847Z,2.00
2022-09-21T01:10:18.438Z,2.00
2022-09-21T01:11:21.927Z,2.00
2022-09-21T01:12:24.993Z,3.29
2022-09-21T01:13:28.698Z,3.83
2022-09-21T01:14:32.391Z,2.71
2022-09-21T01:15:35.496Z,2.43
2022-09-21T01:16:38.945Z,3.00
2022-09-21T01:17:42.348Z,2.57
2022-09-21T01:18:45.697Z,2.83
2022-09-21T01:19:49.011Z,2.57
2022-09-21T01:20:52.313Z,2.00
2022-09-21T01:21:55.771Z,2.43
2022-09-21T01:22:58.791Z,2.00
2022-09-21T01:24:01.868Z,2.14
2022-09-21T01:25:04.949Z,3.00
2022-09-21T01:26:08.036Z,2.33
2022-09-21T01:27:10.961Z,1.86
2022-09-21T01:28:14.709Z,3.29
2022-09-21T01:29:17.881Z,4.00
2022-09-21T01:30:21.164Z,3.29
2022-09-21T01:31:24.711Z,2.29
2022-09-21T01:32:28.129Z,2.71
2022-09-21T01:33:31.890Z,2.00
2022-09-21T01:34:35.414Z,2.00
2022-09-21T01:35:39.113Z,3.00
2022-09-21T01:36:45.370Z,4.14
2022-09-21T01:37:49.154Z,3.50
2022-09-21T01:38:52.519Z,4.00
2022-09-21T01:39:56.130Z,3.00
2022-09-21T01:40:59.826Z,2.57
2022-09-21T01:42:03.541Z,2.25
2022-09-21T01:43:07.117Z,3.00
2022-09-21T01:44:10.490Z,3.29
2022-09-21T01:45:13.943Z,3.14
2022-09-21T01:46:17.269Z,2.57
2022-09-21T01:47:20.382Z,3.00
2022-09-21T01:48:23.719Z,3.00
2022-09-21T01:49:27.325Z,2.57
2022-09-21T01:50:30.914Z,2.00
2022-09-21T01:51:34.405Z,2.14
2022-09-21T01:52:38.099Z,2.57
2022-09-21T01:53:41.736Z,1.57
2022-09-21T01:54:45.083Z,1.62
2022-09-21T01:55:48.467Z,2.43
2022-09-21T01:56:51.955Z,3.00
2022-09-21T01:57:55.321Z,3.00
2022-09-21T01:58:58.957Z,3.57
2022-09-21T02:00:02.182Z,3.50
2022-09-21T02:01:05.459Z,2.86
2022-09-21T02:02:09.112Z,3.57
2022-09-21T02:03:12.390Z,2.50
2022-09-21T02:04:15.866Z,3.00
2022-09-21T02:05:18.860Z,4.14
2022-09-21T02:06:21.981Z,2.57
2022-09-21T02:07:25.408Z,3.33
2022-09-21T02:08:28.818Z,2.71
2022-09-21T02:09:32.179Z,2.00
2022-09-21T02:10:35.572Z,2.00
2022-09-21T02:11:38.669Z,2.14
2022-09-21T02:12:42.162Z,3.00
2022-09-21T02:13:45.557Z,2.71
2022-09-21T02:14:49.017Z,3.00
2022-09-21T02:15:52.138Z,3.00
2022-09-21T02:16:55.785Z,3.00
2022-09-21T02:17:59.209Z,2.57
2022-09-21T02:19:02.460Z,2.43
2022-09-21T02:20:05.843Z,2.14
2022-09-21T02:21:09.236Z,1.00
2022-09-21T02:22:12.330Z,1.43
2022-09-21T02:23:15.517Z,3.14
2022-09-21T02:24:18.585Z,4.00
2022-09-21T02:25:21.783Z,2.33
2022-09-21T02:26:25.052Z,2.67
2022-09-21T02:27:28.422Z,2.86
2022-09-21T02:28:31.628Z,1.71
2022-09-21T02:29:35.088Z,2.43
2022-09-21T02:30:38.689Z,2.86
2022-09-21T02:31:42.012Z,3.00
2022-09-21T02:32:45.684Z,2.57
2022-09-21T02:33:48.941Z,3.00
2022-09-21T02:34:52.554Z,2.33
2022-09-21T02:35:56.359Z,3.00
2022-09-21T02:36:59.657Z,3.00
2022-09-21T02:38:02.945Z,3.57
2022-09-21T02:39:06.007Z,3.00
2022-09-21T02:40:09.526Z,2.43
2022-09-21T02:41:13.156Z,2.29
2022-09-21T02:42:16.660Z,2.12
2022-09-21T02:43:19.940Z,2.43
2022-09-21T02:44:22.940Z,2.86
2022-09-21T02:45:27.149Z,3.00
2022-09-21T02:46:30.793Z,2.50
2022-09-21T02:47:34.116Z,3.43
2022-09-21T02:48:37.316Z,3.00
2022-09-21T02:49:40.590Z,3.33
2022-09-21T02:50:44.233Z,4.00
2022-09-21T02:51:47.159Z,4.00
2022-09-21T02:52:50.627Z,2.14
2022-09-21T02:53:53.890Z,2.43
2022-09-21T02:54:56.811Z,3.14
2022-09-21T02:55:59.927Z,2.14
2022-09-21T02:57:03.351Z,3.00
2022-09-21T02:58:06.840Z,2.86
2022-09-21T02:59:10.044Z,3.00
2022-09-21T03:00:12.829Z,2.57
2022-09-21T03:01:16.286Z,2.50
2022-09-21T03:02:19.390Z,3.00
2022-09-21T03:03:22.499Z,3.43
2022-09-21T03:04:25.936Z,3.50
2022-09-21T03:05:29.420Z,2.29
2022-09-21T03:06:32.520Z,2.00
2022-09-21T03:07:36.915Z,3.00
2022-09-21T03:08:40.217Z,3.00
2022-09-21T03:09:43.517Z,3.14
2022-09-21T03:10:46.768Z,2.86
2022-09-21T03:11:49.658Z,2.43
2022-09-21T03:12:53.522Z,3.43
2022-09-21T03:13:57.162Z,3.57
2022-09-21T03:15:00.447Z,3.43
2022-09-21T03:16:03.877Z,3.57
2022-09-21T03:17:07.284Z,3.14
2022-09-21T03:18:11.072Z,3.86
2022-09-21T03:19:13.976Z,4.00
2022-09-21T03:20:17.061Z,3.14
2022-09-21T03:21:20.382Z,2.67
2022-09-21T03:22:23.324Z,3.00
2022-09-21T03:23:26.990Z,4.00
2022-09-21T03:24:30.508Z,4.00
2022-09-21T03:25:34.073Z,2.86
2022-09-21T03:26:37.560Z,3.00
2022-09-21T03:27:40.895Z,4.57
2022-09-21T03:28:44.356Z,5.29
2022-09-21T03:29:48.142Z,4.00
2022-09-21T03:30:51.391Z,4.00
2022-09-21T03:31:54.797Z,5.43
2022-09-21T03:32:58.394Z,4.57
2022-09-21T03:34:02.020Z,3.71
2022-09-21T03:35:04.999Z,5.71
2022-09-21T03:36:08.659Z,4.00
2022-09-21T03:37:11.784Z,4.14
2022-09-21T03:38:14.911Z,5.00
2022-09-21T03:39:17.815Z,4.57
2022-09-21T03:40:20.968Z,4.67
2022-09-21T03:41:23.982Z,5.43
2022-09-21T03:42:27.540Z,5.17
2022-09-21T03:43:31.130Z,4.62
2022-09-21T03:44:34.556Z,4.43
2022-09-21T03:45:37.971Z,5.43
2022-09-21T03:46:41.540Z,5.00
2022-09-21T03:47:45.006Z,4.71
2022-09-21T03:48:48.193Z,3.86
2022-09-21T03:49:51.963Z,4.57
2022-09-21T03:50:55.789Z,3.50
2022-09-21T03:51:59.322Z,3.86
2022-09-21T03:53:02.558Z,4.86
2022-09-21T03:54:06.229Z,3.00
2022-09-21T03:55:09.464Z,3.43
2022-09-21T03:56:12.896Z,3.57
2022-09-21T03:57:15.999Z,3.86
2022-09-21T03:58:19.262Z,3.71
2022-09-21T03:59:22.367Z,5.29
2022-09-21T04:00:25.451Z,4.57
2022-09-21T04:01:29.002Z,4.43
2022-09-21T04:02:32.366Z,5.00
2022-09-21T04:03:35.990Z,5.00
2022-09-21T04:04:39.316Z,4.50
2022-09-21T04:05:42.962Z,3.43
2022-09-21T04:06:46.190Z,4.43
2022-09-21T04:07:49.671Z,4.14
2022-09-21T04:08:53.233Z,4.29
2022-09-21T04:09:56.640Z,4.57
2022-09-21T04:10:59.824Z,4.43
2022-09-21T04:12:03.391Z,4.43
2022-09-21T04:13:06.529Z,4.14
2022-09-21T04:14:09.672Z,3.43
2022-09-21T04:15:12.937Z,3.86
2022-09-21T04:16:16.140Z,4.86
2022-09-21T04:17:19.267Z,5.33
2022-09-21T04:18:22.301Z,4.83
2022-09-21T04:19:25.282Z,6.86
2022-09-21T04:20:28.849Z,5.43
2022-09-21T04:21:32.333Z,6.86
2022-09-21T04:22:37.785Z,6.71
2022-09-21T04:23:40.139Z,5.00
2022-09-21T04:24:43.746Z,4.57
2022-09-21T04:25:47.006Z,4.86
2022-09-21T04:26:50.188Z,4.57
2022-09-21T04:27:53.468Z,4.00
2022-09-21T04:28:56.756Z,4.29
2022-09-21T04:30:00.049Z,5.29
2022-09-21T04:31:03.356Z,5.14
2022-09-21T04:32:06.575Z,4.00
2022-09-21T04:33:09.537Z,4.57
2022-09-21T04:34:12.622Z,4.00
2022-09-21T04:35:15.814Z,4.33
2022-09-21T04:36:19.051Z,4.57
2022-09-21T04:37:22.561Z,4.43
2022-09-21T04:38:25.806Z,4.71
2022-09-21T04:39:29.087Z,4.71
2022-09-21T04:40:32.461Z,4.00
2022-09-21T04:41:35.877Z,3.57
2022-09-21T04:42:39.406Z,4.29
2022-09-21T04:43:42.440Z,5.00
2022-09-21T04:44:45.710Z,4.43
2022-09-21T04:45:49.101Z,3.57
2022-09-21T04:46:52.381Z,3.43
2022-09-21T04:47:55.874Z,4.86
2022-09-21T04:48:59.257Z,7.00
2022-09-21T04:50:02.543Z,6.00
2022-09-21T04:51:05.829Z,4.57
2022-09-21T04:52:09.429Z,5.57
2022-09-21T04:53:12.702Z,4.86
2022-09-21T04:54:16.160Z,5.43
2022-09-21T04:55:19.493Z,5.57
2022-09-21T04:56:22.861Z,5.00
2022-09-21T04:57:26.151Z,5.43
2022-09-21T04:58:29.607Z,5.57
2022-09-21T04:59:33.126Z,5.50
2022-09-21T05:00:36.831Z,5.14
2022-09-21T05:01:40.197Z,4.57
2022-09-21T05:02:43.803Z,4.33
2022-09-21T05:03:47.444Z,5.00
2022-09-21T05:04:51.191Z,4.57
2022-09-21T05:05:54.680Z,4.87
2022-09-21T05:06:58.060Z,4.43
2022-09-21T05:08:01.499Z,5.00
2022-09-21T05:09:04.637Z,5.14
2022-09-21T05:10:08.122Z,5.43
2022-09-21T05:11:11.165Z,5.14
2022-09-21T05:12:14.585Z,5.17
2022-09-21T05:13:19.854Z,7.00
2022-09-21T05:14:22.084Z,5.00
2022-09-21T05:15:25.490Z,6.86
2022-09-21T05:16:29.061Z,6.29
2022-09-21T05:17:32.441Z,5.71
2022-09-21T05:18:35.930Z,7.14
2022-09-21T05:19:39.434Z,5.86
2022-09-21T05:20:42.851Z,7.00
2022-09-21T05:21:46.404Z,6.57
2022-09-21T05:22:50.003Z,7.86
2022-09-21T05:23:53.580Z,8.00
2022-09-21T05:24:57.038Z,5.57
2022-09-21T05:26:00.448Z,5.86
2022-09-21T05:27:04.046Z,6.57
2022-09-21T05:28:07.326Z,6.00
2022-09-21T05:29:10.918Z,5.29
2022-09-21T05:30:14.307Z,5.86
2022-09-21T05:31:18.505Z,7.00
2022-09-21T05:32:21.901Z,8.00
2022-09-21T05:33:24.977Z,7.86
2022-09-21T05:34:30.179Z,6.00
2022-09-21T05:35:33.494Z,6.50
2022-09-21T05:36:36.884Z,6.00
2022-09-21T05:37:40.472Z,5.00
2022-09-21T05:38:44.077Z,6.29
2022-09-21T05:39:47.656Z,6.50
2022-09-21T05:40:51.651Z,5.86
2022-09-21T05:41:58.218Z,4.87
2022-09-21T05:43:01.805Z,5.37
2022-09-21T05:44:05.283Z,5.57
2022-09-21T05:45:08.887Z,5.71
2022-09-21T05:46:12.525Z,7.29
2022-09-21T05:47:16.069Z,5.71
2022-09-21T05:48:19.345Z,5.57
2022-09-21T05:49:22.535Z,6.14
2022-09-21T05:50:25.724Z,5.33
2022-09-21T05:51:29.076Z,6.00
2022-09-21T05:52:32.366Z,6.71
2022-09-21T05:53:36.195Z,6.57
2022-09-21T05:54:39.882Z,5.75
2022-09-21T05:55:43.206Z,5.57
2022-09-21T05:56:46.873Z,6.00
2022-09-21T05:57:50.345Z,6.14
2022-09-21T05:58:53.630Z,5.86
2022-09-21T05:59:56.712Z,7.00
2022-09-21T06:01:00.166Z,7.00
2022-09-21T06:02:04.537Z,5.43
2022-09-21T06:03:07.332Z,6.50
2022-09-21T06:04:10.884Z,6.67
2022-09-21T06:05:14.127Z,7.57
2022-09-21T06:06:17.543Z,8.57
2022-09-21T06:07:21.005Z,6.14
2022-09-21T06:08:24.218Z,6.57
2022-09-21T06:09:27.295Z,6.29
2022-09-21T06:10:30.472Z,4.86
2022-09-21T06:11:33.901Z,7.00
2022-09-21T06:12:37.144Z,8.14
2022-09-21T06:13:40.529Z,7.00
2022-09-21T06:14:43.710Z,6.29
2022-09-21T06:15:46.893Z,6.00
2022-09-21T06:16:50.303Z,7.86
2022-09-21T06:17:54.075Z,8.14
2022-09-21T06:18:57.877Z,6.50
2022-09-21T06:20:01.213Z,6.29
2022-09-21T06:21:04.956Z,7.00
2022-09-21T06:22:08.447Z,6.50
2022-09-21T06:23:11.739Z,7.14
2022-09-21T06:24:15.427Z,7.71
2022-09-21T06:25:19.648Z,6.00
2022-09-21T06:26:23.629Z,6.50
2022-09-21T06:27:27.012Z,7.43
2022-09-21T06:28:30.401Z,6.71
2022-09-21T06:29:33.904Z,5.57
2022-09-21T06:30:37.955Z,5.43
2022-09-21T06:31:41.685Z,5.43
2022-09-21T06:32:45.281Z,5.50
2022-09-21T06:33:49.184Z,6.25
2022-09-21T06:34:52.462Z,7.00
2022-09-21T06:35:55.958Z,6.00
2022-09-21T06:36:59.546Z,6.71
2022-09-21T06:38:03.027Z,8.67
2022-09-21T06:39:06.359Z,7.57
2022-09-21T06:40:09.858Z,6.57
2022-09-21T06:41:15.272Z,5.57
2022-09-21T06:42:17.297Z,5.25
2022-09-21T06:43:20.546Z,6.29
2022-09-21T06:44:23.972Z,7.29
2022-09-21T06:45:27.560Z,7.50
2022-09-21T06:46:30.725Z,7.43
2022-09-21T06:47:33.906Z,6.71
2022-09-21T06:48:37.489Z,5.67
2022-09-21T06:49:42.701Z,6.57
2022-09-21T06:50:45.717Z,5.75
2022-09-21T06:51:49.541Z,6.57
2022-09-21T06:52:52.780Z,6.00
2022-09-21T06:53:55.981Z,6.71
2022-09-21T06:54:59.471Z,7.00
2022-09-21T06:56:03.197Z,6.43
2022-09-21T06:57:06.401Z,5.29
2022-09-21T06:58:10.388Z,6.71
2022-09-21T06:59:13.638Z,6.00
2022-09-21T07:00:17.324Z,6.00
2022-09-21T07:01:21.428Z,5.50
2022-09-21T07:02:24.818Z,5.00
2022-09-21T07:03:28.103Z,5.83
2022-09-21T07:04:31.389Z,7.00
2022-09-21T07:05:34.667Z,7.00
2022-09-21T07:06:38.260Z,5.71
2022-09-21T07:07:41.640Z,6.00
2022-09-21T07:10:05.582Z,6.25
2022-09-21T07:10:54.482Z,6.25
2022-09-21T07:11:57.966Z,6.00
2022-09-21T07:13:01.881Z,6.57
2022-09-21T07:14:04.991Z,6.50
2022-09-21T07:15:08.217Z,6.50
2022-09-21T07:16:12.068Z,6.67
2022-09-21T07:17:16.074Z,7.00
2022-09-21T07:18:19.510Z,6.50
2022-09-21T07:19:22.997Z,7.43
2022-09-21T07:20:26.380Z,7.57
2022-09-21T07:21:30.283Z,6.57
2022-09-21T07:22:33.985Z,5.75
2022-09-21T07:23:37.189Z,5.00
2022-09-21T07:24:40.566Z,5.00
2022-09-21T07:25:46.066Z,6.43
2022-09-21T07:26:50.963Z,6.75
2022-09-21T07:27:54.492Z,6.50
2022-09-21T07:29:01.372Z,7.00
2022-09-21T07:30:04.965Z,6.00
2022-09-21T07:31:08.640Z,5.43
2022-09-21T07:32:12.031Z,5.87
2022-09-21T07:33:15.517Z,6.29
2022-09-21T07:34:18.903Z,7.57
2022-09-21T07:35:22.053Z,6.14
2022-09-21T07:36:25.088Z,6.43
2022-09-21T07:37:28.453Z,7.86
2022-09-21T07:38:32.048Z,8.14
2022-09-21T07:39:35.630Z,7.43
2022-09-21T07:40:39.998Z,7.00
2022-09-21T07:41:43.330Z,8.00
2022-09-21T07:42:46.994Z,7.71
2022-09-21T07:43:50.570Z,5.87
2022-09-21T07:45:03.443Z,5.86
2022-09-21T07:45:58.547Z,5.00
2022-09-21T07:47:01.900Z,4.86
2022-09-21T07:48:05.249Z,6.71
2022-09-21T07:49:08.416Z,6.14
2022-09-21T07:50:12.086Z,7.29
2022-09-21T07:51:15.241Z,8.29
2022-09-21T07:52:18.530Z,7.86
2022-09-21T07:53:22.035Z,8.71
2022-09-21T07:54:25.205Z,7.86
2022-09-21T07:55:28.393Z,7.00
2022-09-21T07:56:31.777Z,6.57
2022-09-21T07:57:35.153Z,6.14
2022-09-21T07:58:39.254Z,7.43
2022-09-21T07:59:42.642Z,7.00
2022-09-21T08:00:45.885Z,6.29
2022-09-21T08:01:49.136Z,6.57
2022-09-21T08:02:52.390Z,7.00
2022-09-21T08:03:55.889Z,8.00
2022-09-21T08:04:59.251Z,7.57
2022-09-21T08:06:02.663Z,7.00
2022-09-21T08:07:05.864Z,6.29
2022-09-21T08:08:09.277Z,6.29
2022-09-21T08:09:12.920Z,6.14
2022-09-21T08:10:16.510Z,6.62
2022-09-21T08:11:19.904Z,6.29
2022-09-21T08:12:23.185Z,7.14
2022-09-21T08:13:26.462Z,7.43
2022-09-21T08:14:29.657Z,8.29
2022-09-21T08:15:48.791Z,9.17
2022-09-21T08:16:40.297Z,7.00
2022-09-21T08:17:43.817Z,6.87
2022-09-21T08:18:47.302Z,8.14
2022-09-21T08:19:50.805Z,7.00
2022-09-21T08:20:54.065Z,7.43
2022-09-21T08:21:58.020Z,6.57
2022-09-21T08:23:01.549Z,7.00
2022-09-21T08:24:04.837Z,7.43
2022-09-21T08:25:08.736Z,7.14
2022-09-21T08:26:12.121Z,7.00
2022-09-21T08:27:15.504Z,6.86
2022-09-21T08:28:19.201Z,7.86
2022-09-21T08:29:22.594Z,7.37
2022-09-21T08:30:26.081Z,6.29
2022-09-21T08:31:29.543Z,6.00
2022-09-21T08:32:50.087Z,6.14
2022-09-21T08:33:37.390Z,7.25
2022-09-21T08:34:40.757Z,8.00
2022-09-21T08:35:44.648Z,6.57
2022-09-21T08:36:51.777Z,6.50
2022-09-21T08:37:52.874Z,7.00
2022-09-21T08:38:56.450Z,7.00
2022-09-21T08:40:00.263Z,8.43
2022-09-21T08:41:03.832Z,7.50
2022-09-21T08:42:07.322Z,7.29
2022-09-21T08:43:10.633Z,8.14
2022-09-21T08:44:13.713Z,6.57
2022-09-21T08:45:16.869Z,6.86
2022-09-21T08:46:20.310Z,7.57
2022-09-21T08:47:23.469Z,6.57
2022-09-21T08:48:29.257Z,6.43
2022-09-21T08:49:31.242Z,7.75
2022-09-21T08:50:34.853Z,7.86
2022-09-21T08:51:38.526Z,7.00
2022-09-21T08:52:46.303Z,7.14
2022-09-21T08:53:48.590Z,6.37
2022-09-21T08:54:52.165Z,6.86
2022-09-21T08:55:55.545Z,8.29
2022-09-21T08:57:05.398Z,8.57
2022-09-21T08:58:03.350Z,6.00
2022-09-21T08:59:06.488Z,6.00
2022-09-21T09:00:09.610Z,6.17
2022-09-21T09:01:12.897Z,7.14
2022-09-21T09:02:16.282Z,8.57
2022-09-21T09:03:19.565Z,8.57
2022-09-21T09:04:22.607Z,7.17
2022-09-21T09:05:25.818Z,7.00
2022-09-21T09:06:28.925Z,6.57
2022-09-21T09:07:32.185Z,6.29
2022-09-21T09:08:38.747Z,8.57
2022-09-21T09:09:42.335Z,7.62
2022-09-21T09:10:45.826Z,6.86
2022-09-21T09:11:49.434Z,9.29
2022-09-21T09:12:53.213Z,9.29
2022-09-21T09:13:56.702Z,7.00
2022-09-21T09:14:59.985Z,7.86
2022-09-21T09:16:03.952Z,8.43
2022-09-21T09:17:07.171Z,8.50
2022-09-21T09:18:10.364Z,7.71
2022-09-21T09:19:13.534Z,7.00
2022-09-21T09:20:16.819Z,8.00
2022-09-21T09:21:28.210Z,6.83
2022-09-21T09:22:24.321Z,7.87
2022-09-21T09:23:27.591Z,7.29
2022-09-21T09:24:30.772Z,7.00
2022-09-21T09:25:34.059Z,7.86
2022-09-21T09:26:37.241Z,8.00
2022-09-21T09:27:40.428Z,9.14
2022-09-21T09:28:43.604Z,8.14
2022-09-21T09:29:46.881Z,7.33
2022-09-21T09:30:50.275Z,7.67
2022-09-21T09:31:53.885Z,8.29
2022-09-21T09:32:57.075Z,8.86
2022-09-21T09:34:00.740Z,6.57
2022-09-21T09:35:04.129Z,7.71
2022-09-21T09:36:07.819Z,8.00
2022-09-21T09:37:11.150Z,8.00
2022-09-21T09:38:14.398Z,8.67
2022-09-21T09:39:17.632Z,8.67
2022-09-21T09:40:21.010Z,9.29
2022-09-21T09:41:24.139Z,8.86
2022-09-21T09:42:27.326Z,7.50
2022-09-21T09:43:30.810Z,8.67
2022-09-21T09:44:34.605Z,8.86
2022-09-21T09:45:38.011Z,9.50
2022-09-21T09:46:41.411Z,9.29
2022-09-21T09:47:44.745Z,10.00
2022-09-21T09:48:51.878Z,9.29
2022-09-21T09:49:53.384Z,9.00
2022-09-21T09:50:56.768Z,8.14
2022-09-21T09:52:00.258Z,7.00
2022-09-21T09:53:03.679Z,7.43
2022-09-21T09:54:10.112Z,8.43
2022-09-21T09:55:11.340Z,8.13
2022-09-21T09:56:14.882Z,8.29
2022-09-21T09:57:18.221Z,8.57
2022-09-21T09:58:21.505Z,7.57
2022-09-21T09:59:24.627Z,7.43
2022-09-21T10:00:27.966Z,8.43
2022-09-21T10:01:30.983Z,8.00
2022-09-21T10:02:34.325Z,8.00
2022-09-21T10:03:37.816Z,7.86
2022-09-21T10:04:41.149Z,7.00
2022-09-21T10:05:44.493Z,8.43
2022-09-21T10:06:47.976Z,9.71
2022-09-21T10:07:51.361Z,9.43
2022-09-21T10:08:54.850Z,9.86
2022-09-21T10:09:58.139Z,9.86
2022-09-21T10:11:01.441Z,7.67
2022-09-21T10:12:10.262Z,8.14
2022-09-21T10:13:13.107Z,7.75
2022-09-21T10:14:17.521Z,8.25
2022-09-21T10:15:20.805Z,7.87
2022-09-21T10:16:23.862Z,8.00
2022-09-21T10:17:27.168Z,7.71
2022-09-21T10:18:30.293Z,6.86
2022-09-21T10:19:33.658Z,8.17
2022-09-21T10:20:40.089Z,9.14
2022-09-21T10:21:43.613Z,6.87
2022-09-21T10:22:47.182Z,5.71
2022-09-21T10:23:50.560Z,7.00
2022-09-21T10:24:54.051Z,7.00
2022-09-21T10:25:57.437Z,7.00
2022-09-21T10:27:00.632Z,7.33
2022-09-21T10:28:03.801Z,9.14
2022-09-21T10:29:07.392Z,8.67
2022-09-21T10:30:10.781Z,6.86
2022-09-21T10:31:13.993Z,7.14
2022-09-21T10:32:17.607Z,6.00
2022-09-21T10:33:20.638Z,6.43
2022-09-21T10:34:23.916Z,6.50
2022-09-21T10:35:26.799Z,6.57
2022-09-21T10:36:29.972Z,7.17
2022-09-21T10:37:33.665Z,8.00
2022-09-21T10:38:37.262Z,8.00
2022-09-21T10:39:40.745Z,7.57
2022-09-21T10:40:44.478Z,6.57
2022-09-21T10:41:47.921Z,6.50
2022-09-21T10:42:51.428Z,6.14
2022-09-21T10:43:54.602Z,6.00
2022-09-21T10:44:58.088Z,6.00
2022-09-21T10:46:01.660Z,6.00
2022-09-21T10:47:05.174Z,6.00
2022-09-21T10:48:08.865Z,5.43
2022-09-21T10:49:12.283Z,5.29
2022-09-21T10:50:15.842Z,5.33
2022-09-21T10:51:19.125Z,6.57
2022-09-21T10:52:22.408Z,6.57
2022-09-21T10:53:25.898Z,6.00
2022-09-21T10:54:28.990Z,5.57
2022-09-21T10:55:32.670Z,5.43
2022-09-21T10:56:35.954Z,5.14
2022-09-21T10:57:39.241Z,5.43
2022-09-21T10:58:42.522Z,6.00
2022-09-21T10:59:45.807Z,6.00
2022-09-21T11:00:49.195Z,6.00
2022-09-21T11:01:52.365Z,6.00
2022-09-21T11:02:55.834Z,5.67
2022-09-21T11:03:59.148Z,5.57
2022-09-21T11:05:02.540Z,6.86
2022-09-21T11:06:05.926Z,8.00
2022-09-21T11:07:09.204Z,7.14
2022-09-21T11:08:12.597Z,5.29
2022-09-21T11:09:15.979Z,5.57
2022-09-21T11:10:19.062Z,5.00
2022-09-21T11:11:22.444Z,6.00
2022-09-21T11:12:25.626Z,5.71
2022-09-21T11:13:28.913Z,5.14
2022-09-21T11:14:32.192Z,6.00
2022-09-21T11:15:35.518Z,6.14
2022-09-21T11:16:38.765Z,7.00
2022-09-21T11:17:43.775Z,6.57
2022-09-21T11:18:47.073Z,7.00
2022-09-21T11:19:50.358Z,8.43
2022-09-21T11:20:53.403Z,8.57
2022-09-21T11:21:56.623Z,7.00
2022-09-21T11:23:00.115Z,7.43
2022-09-21T11:24:03.597Z,7.50
2022-09-21T11:25:07.053Z,6.71
2022-09-21T11:26:10.585Z,6.57
2022-09-21T11:27:13.864Z,6.86
2022-09-21T11:28:17.037Z,7.00
2022-09-21T11:29:20.257Z,5.43
2022-09-21T11:30:23.404Z,6.43
2022-09-21T11:31:26.586Z,6.33
2022-09-21T11:32:29.866Z,5.67
2022-09-21T11:33:33.061Z,6.29
2022-09-21T11:34:36.124Z,6.33
2022-09-21T11:35:39.631Z,5.50
2022-09-21T11:36:42.906Z,7.00
2022-09-21T11:37:46.290Z,7.00
2022-09-21T11:38:49.476Z,5.86
2022-09-21T11:39:52.857Z,5.33
2022-09-21T11:40:56.560Z,6.43
2022-09-21T11:42:00.046Z,6.25
2022-09-21T11:43:03.532Z,5.71
2022-09-21T11:44:08.253Z,7.14
2022-09-21T11:45:11.336Z,7.50
2022-09-21T11:46:15.423Z,7.00
2022-09-21T11:47:18.522Z,6.71
2022-09-21T11:48:22.104Z,6.67
2022-09-21T11:49:26.490Z,6.50
2022-09-21T11:50:32.330Z,5.75
2022-09-21T11:51:34.308Z,7.00
2022-09-21T11:52:37.799Z,7.00
2022-09-21T11:53:41.388Z,6.29
2022-09-21T11:54:44.780Z,6.86
2022-09-21T11:55:48.093Z,7.14
2022-09-21T11:56:51.512Z,5.57
2022-09-21T11:57:55.209Z,5.29
2022-09-21T11:58:59.017Z,6.00
2022-09-21T12:00:02.430Z,5.57
2022-09-21T12:01:05.815Z,5.86
2022-09-21T12:02:09.530Z,6.67
2022-09-21T12:03:12.776Z,6.50
2022-09-21T12:04:16.247Z,6.57
2022-09-21T12:05:19.255Z,6.00
2022-09-21T12:06:22.749Z,6.43
2022-09-21T12:07:26.447Z,7.00
2022-09-21T12:08:29.623Z,7.00
2022-09-21T12:09:32.803Z,6.57
2022-09-21T12:10:36.296Z,5.86
2022-09-21T12:11:39.687Z,6.00
2022-09-21T12:12:43.372Z,7.29
2022-09-21T12:13:46.864Z,6.57
2022-09-21T12:14:50.557Z,6.00
2022-09-21T12:15:53.943Z,6.43
2022-09-21T12:16:57.452Z,7.57
2022-09-21T12:18:01.024Z,6.57
2022-09-21T12:19:07.482Z,8.00
2022-09-21T12:20:10.671Z,9.00
2022-09-21T12:21:13.947Z,7.86
2022-09-21T12:22:17.243Z,6.71
2022-09-21T12:23:20.369Z,5.57
2022-09-21T12:24:24.094Z,5.14
2022-09-21T12:25:28.109Z,6.00
2022-09-21T12:26:31.396Z,6.43
2022-09-21T12:27:34.577Z,7.43
2022-09-21T12:28:37.752Z,6.71
2022-09-21T12:29:40.939Z,6.29
2022-09-21T12:30:44.380Z,8.00
2022-09-21T12:31:47.719Z,7.71
2022-09-21T12:32:51.017Z,8.00
2022-09-21T12:33:54.502Z,6.71
2022-09-21T12:34:57.767Z,6.14
2022-09-21T12:36:00.955Z,6.50
2022-09-21T12:37:04.134Z,6.00
2022-09-21T12:38:07.424Z,7.43
2022-09-21T12:39:10.917Z,7.57
2022-09-21T12:40:14.247Z,7.00
2022-09-21T12:41:17.473Z,7.14
2022-09-21T12:42:20.762Z,7.57
2022-09-21T12:43:23.954Z,6.43
2022-09-21T12:44:27.242Z,5.43
2022-09-21T12:45:30.408Z,6.43
2022-09-21T12:46:33.867Z,7.00
2022-09-21T12:47:37.201Z,7.00
2022-09-21T12:48:40.667Z,7.86
2022-09-21T12:49:44.289Z,8.14
2022-09-21T12:50:47.749Z,6.43
2022-09-21T12:51:51.443Z,6.43
2022-09-21T12:52:55.031Z,7.00
2022-09-21T12:53:58.373Z,7.71
2022-09-21T12:55:01.933Z,7.86
2022-09-21T12:56:09.041Z,7.00
2022-09-21T12:57:29.649Z,7.00
2022-09-21T12:58:16.151Z,6.75
2022-09-21T12:59:18.850Z,7.00
2022-09-21T13:00:22.632Z,7.33
2022-09-21T13:01:26.160Z,7.57
2022-09-21T13:02:29.610Z,7.00
2022-09-21T13:03:32.793Z,6.50
2022-09-21T13:04:36.178Z,5.33
2022-09-21T13:05:39.466Z,7.00
2022-09-21T13:06:42.878Z,6.83
2022-09-21T13:07:46.339Z,7.29
2022-09-21T13:09:52.605Z,7.00
2022-09-21T13:10:55.783Z,7.00
2022-09-21T13:11:58.962Z,6.57
2022-09-21T13:13:02.193Z,6.57
2022-09-21T13:14:05.747Z,7.29
2022-09-21T13:15:10.455Z,7.00
2022-09-21T13:16:14.210Z,6.87
2022-09-21T13:17:17.435Z,7.00
2022-09-21T13:18:22.051Z,7.50
2022-09-21T13:19:25.229Z,7.14
2022-09-21T13:20:28.416Z,6.43
2022-09-21T13:21:31.597Z,8.33
2022-09-21T13:22:34.878Z,8.00
2022-09-21T13:23:38.573Z,8.00
2022-09-21T13:24:42.062Z,8.00
2022-09-21T19:03:50.184Z,8.00
2022-09-21T19:04:53.484Z,4.14
2022-09-21T19:05:56.853Z,6.86
2022-09-21T19:07:00.242Z,6.29
2022-09-21T19:08:03.635Z,4.43
2022-09-21T19:09:06.929Z,5.00
2022-09-21T19:10:11.223Z,6.00
2022-09-21T19:11:14.409Z,6.00
2022-09-21T19:12:17.791Z,6.14
2022-09-21T19:13:20.969Z,7.50
2022-09-21T19:14:24.255Z,9.43
2022-09-21T19:15:48.667Z,6.14
2022-09-21T19:16:32.088Z,5.50
2022-09-21T19:17:35.133Z,6.00
2022-09-21T19:18:38.312Z,5.57
2022-09-21T19:19:41.711Z,5.33
2022-09-21T19:20:45.206Z,5.71
2022-09-21T19:21:48.677Z,5.86
2022-09-21T19:22:55.348Z,6.29
2022-09-21T19:23:58.914Z,4.87
2022-09-21T19:25:03.446Z,5.50
2022-09-21T19:26:06.733Z,5.87
2022-09-21T19:27:10.023Z,6.00
2022-09-21T19:28:13.093Z,5.57
2022-09-21T19:29:16.506Z,6.00
2022-09-21T19:30:19.762Z,6.71
2022-09-21T19:31:23.045Z,5.43
2022-09-21T19:32:26.436Z,6.00
2022-09-21T19:33:48.993Z,5.57
2022-09-21T19:34:33.940Z,5.50
2022-09-21T19:35:37.008Z,6.00
2022-09-21T19:36:40.079Z,5.57
2022-09-21T19:37:43.468Z,5.33
2022-09-21T19:38:46.962Z,6.17
2022-09-21T19:39:50.450Z,6.50
2022-09-21T19:40:53.834Z,6.00
2022-09-21T19:41:57.120Z,6.57
2022-09-21T19:43:00.398Z,6.43
2022-09-21T19:44:03.888Z,6.14
2022-09-21T19:45:07.181Z,5.43